sensor_id;sensor_type;location;lat;lon;timestamp;temperature;humidity
38456;DHT22;24237;50.106;20.014;2022-12-18T00:01:22;-0.80;99.90
38456;DHT22;24237;50.106;20.014;2022-12-18T00:03:48;-0.70;99.90
38456;DHT22;24237;50.106;20.014;2022-12-18T00:06:14;-0.90;99.90
38456;DHT22;24237;50.106;20.014;2022-12-18T00:08:41;-0.90;99.90
38456;DHT22;24237;50.106;20.014;2022-12-18T00:11:10;-0.60;99.90
38456;DHT22;24237;50.106;20.014;2022-12-18T00:13:36;-0.70;99.90
38456;DHT22;24237;50.106;20.014;2022-12-18T00:16:07;-0.60;99.90
38456;DHT22;24237;50.106;20.014;2022-12-18T00:18:34;-0.70;99.90
38456;DHT22;24237;50.106;20.014;2022-12-18T00:21:05;-0.70;99.90
38456;DHT22;24237;50.106;20.014;2022-12-18T00:23:33;-0.90;99.90
38456;DHT22;24237;50.106;20.014;2022-12-18T00:26:06;-0.80;99.90
38456;DHT22;24237;50.106;20.014;2022-12-18T00:28:32;-0.80;99.90
38456;DHT22;24237;50.106;20.014;2022-12-18T00:31:12;-0.90;99.90
38456;DHT22;24237;50.106;20.014;2022-12-18T00:33:38;-1.00;99.90
38456;DHT22;24237;50.106;20.014;2022-12-18T00:36:09;-0.90;99.90
38456;DHT22;24237;50.106;20.014;2022-12-18T00:38:35;-0.80;99.90
38456;DHT22;24237;50.106;20.014;2022-12-18T00:41:02;-0.70;99.90
38456;DHT22;24237;50.106;20.014;2022-12-18T00:43:27;-0.70;99.90
38456;DHT22;24237;50.106;20.014;2022-12-18T00:45:53;-0.50;99.90
38456;DHT22;24237;50.106;20.014;2022-12-18T00:48:19;-0.60;99.90
38456;DHT22;24237;50.106;20.014;2022-12-18T00:50:46;-0.80;99.90
38456;DHT22;24237;50.106;20.014;2022-12-18T00:53:12;-1.10;99.90
38456;DHT22;24237;50.106;20.014;2022-12-18T00:55:41;-1.40;99.90
38456;DHT22;24237;50.106;20.014;2022-12-18T00:58:08;-1.60;99.90
38456;DHT22;24237;50.106;20.014;2022-12-18T01:00:34;-1.80;99.90
38456;DHT22;24237;50.106;20.014;2022-12-18T01:02:59;-1.80;99.90
38456;DHT22;24237;50.106;20.014;2022-12-18T01:05:25;-1.90;99.90
38456;DHT22;24237;50.106;20.014;2022-12-18T01:07:51;-1.90;99.90
38456;DHT22;24237;50.106;20.014;2022-12-18T01:10:16;-1.90;99.90
38456;DHT22;24237;50.106;20.014;2022-12-18T01:12:42;-2.00;99.90
38456;DHT22;24237;50.106;20.014;2022-12-18T01:15:09;-2.10;99.90
38456;DHT22;24237;50.106;20.014;2022-12-18T01:17:35;-1.90;99.90
38456;DHT22;24237;50.106;20.014;2022-12-18T01:20:01;-1.90;99.90
38456;DHT22;24237;50.106;20.014;2022-12-18T01:22:26;-1.70;99.90
38456;DHT22;24237;50.106;20.014;2022-12-18T01:24:52;-1.60;99.90
38456;DHT22;24237;50.106;20.014;2022-12-18T01:27:18;-1.40;99.90
38456;DHT22;24237;50.106;20.014;2022-12-18T01:29:43;-1.30;99.90
38456;DHT22;24237;50.106;20.014;2022-12-18T01:32:09;-1.10;99.90
38456;DHT22;24237;50.106;20.014;2022-12-18T01:34:38;-1.00;99.90
38456;DHT22;24237;50.106;20.014;2022-12-18T01:37:04;-1.30;99.90
38456;DHT22;24237;50.106;20.014;2022-12-18T01:39:30;-1.40;99.90
38456;DHT22;24237;50.106;20.014;2022-12-18T01:41:57;-1.50;99.90
38456;DHT22;24237;50.106;20.014;2022-12-18T01:52:45;-1.00;99.90
38456;DHT22;24237;50.106;20.014;2022-12-18T01:55:12;-0.80;99.90
38456;DHT22;24237;50.106;20.014;2022-12-18T01:57:40;-0.90;99.90
38456;DHT22;24237;50.106;20.014;2022-12-18T02:00:13;-1.00;99.90
38456;DHT22;24237;50.106;20.014;2022-12-18T02:02:41;-0.90;99.90
38456;DHT22;24237;50.106;20.014;2022-12-18T02:05:07;-0.80;99.90
38456;DHT22;24237;50.106;20.014;2022-12-18T02:08:09;-1.00;99.90
38456;DHT22;24237;50.106;20.014;2022-12-18T02:19:01;-0.80;99.90
38456;DHT22;24237;50.106;20.014;2022-12-18T02:21:32;-0.80;99.90
38456;DHT22;24237;50.106;20.014;2022-12-18T02:24:30;-0.80;99.90
38456;DHT22;24237;50.106;20.014;2022-12-18T02:27:04;-0.80;99.90
38456;DHT22;24237;50.106;20.014;2022-12-18T02:29:48;-0.80;99.90
38456;DHT22;24237;50.106;20.014;2022-12-18T02:32:20;-0.70;99.90
38456;DHT22;24237;50.106;20.014;2022-12-18T02:34:48;-0.50;99.90
38456;DHT22;24237;50.106;20.014;2022-12-18T02:37:18;-0.80;99.90
38456;DHT22;24237;50.106;20.014;2022-12-18T02:39:45;-1.00;99.90
38456;DHT22;24237;50.106;20.014;2022-12-18T02:42:13;-0.90;99.90
38456;DHT22;24237;50.106;20.014;2022-12-18T02:44:47;-0.80;99.90
38456;DHT22;24237;50.106;20.014;2022-12-18T02:47:15;-0.90;99.90
38456;DHT22;24237;50.106;20.014;2022-12-18T02:50:02;-0.60;99.90
38456;DHT22;24237;50.106;20.014;2022-12-18T02:52:42;-0.70;99.90
38456;DHT22;24237;50.106;20.014;2022-12-18T02:55:53;-0.70;99.90
38456;DHT22;24237;50.106;20.014;2022-12-18T03:03:40;-0.40;99.90
38456;DHT22;24237;50.106;20.014;2022-12-18T03:06:10;-0.40;99.90
38456;DHT22;24237;50.106;20.014;2022-12-18T03:08:46;-0.30;99.90
38456;DHT22;24237;50.106;20.014;2022-12-18T03:11:14;-0.30;99.90
38456;DHT22;24237;50.106;20.014;2022-12-18T03:13:50;-0.50;99.90
38456;DHT22;24237;50.106;20.014;2022-12-18T03:16:28;-0.60;99.90
38456;DHT22;24237;50.106;20.014;2022-12-18T03:19:08;-0.60;99.90
38456;DHT22;24237;50.106;20.014;2022-12-18T03:21:45;-0.60;99.90
38456;DHT22;24237;50.106;20.014;2022-12-18T03:24:13;-0.50;99.90
38456;DHT22;24237;50.106;20.014;2022-12-18T03:26:42;-0.40;99.90
38456;DHT22;24237;50.106;20.014;2022-12-18T03:29:14;-0.30;99.90
38456;DHT22;24237;50.106;20.014;2022-12-18T03:31:47;-0.30;99.90
38456;DHT22;24237;50.106;20.014;2022-12-18T03:34:23;-0.30;99.90
38456;DHT22;24237;50.106;20.014;2022-12-18T03:36:50;-0.50;99.90
38456;DHT22;24237;50.106;20.014;2022-12-18T03:39:16;-0.40;99.90
38456;DHT22;24237;50.106;20.014;2022-12-18T03:41:51;-0.30;99.90
38456;DHT22;24237;50.106;20.014;2022-12-18T03:44:20;-0.40;99.90
38456;DHT22;24237;50.106;20.014;2022-12-18T03:47:13;-0.40;99.90
38456;DHT22;24237;50.106;20.014;2022-12-18T03:52:37;-0.80;99.90
38456;DHT22;24237;50.106;20.014;2022-12-18T03:55:05;-0.80;99.90
38456;DHT22;24237;50.106;20.014;2022-12-18T03:57:32;-0.60;99.90
38456;DHT22;24237;50.106;20.014;2022-12-18T04:00:02;-0.50;99.90
38456;DHT22;24237;50.106;20.014;2022-12-18T04:02:30;-0.60;99.90
38456;DHT22;24237;50.106;20.014;2022-12-18T04:04:59;-0.70;99.90
38456;DHT22;24237;50.106;20.014;2022-12-18T04:07:25;-0.70;99.90
38456;DHT22;24237;50.106;20.014;2022-12-18T04:09:55;-0.70;99.90
38456;DHT22;24237;50.106;20.014;2022-12-18T04:12:24;-0.70;99.90
38456;DHT22;24237;50.106;20.014;2022-12-18T04:14:51;-0.60;99.90
38456;DHT22;24237;50.106;20.014;2022-12-18T04:17:17;-0.40;99.90
38456;DHT22;24237;50.106;20.014;2022-12-18T04:19:42;-0.60;99.90
38456;DHT22;24237;50.106;20.014;2022-12-18T04:22:10;-0.40;99.90
38456;DHT22;24237;50.106;20.014;2022-12-18T04:24:35;-0.40;99.90
38456;DHT22;24237;50.106;20.014;2022-12-18T04:27:01;-0.50;99.90
38456;DHT22;24237;50.106;20.014;2022-12-18T04:29:27;-0.60;99.90
38456;DHT22;24237;50.106;20.014;2022-12-18T04:31:53;-0.50;99.90
38456;DHT22;24237;50.106;20.014;2022-12-18T04:34:20;-0.60;99.90
38456;DHT22;24237;50.106;20.014;2022-12-18T04:36:46;-0.60;99.90
38456;DHT22;24237;50.106;20.014;2022-12-18T04:39:11;-0.70;99.90
38456;DHT22;24237;50.106;20.014;2022-12-18T04:41:37;-0.80;99.90
38456;DHT22;24237;50.106;20.014;2022-12-18T04:44:03;-0.80;99.90
38456;DHT22;24237;50.106;20.014;2022-12-18T04:46:29;-0.50;99.90
38456;DHT22;24237;50.106;20.014;2022-12-18T04:48:55;-0.50;99.90
38456;DHT22;24237;50.106;20.014;2022-12-18T04:51:20;-0.60;99.90
38456;DHT22;24237;50.106;20.014;2022-12-18T04:53:46;-0.70;99.90
38456;DHT22;24237;50.106;20.014;2022-12-18T04:56:14;-0.80;99.90
38456;DHT22;24237;50.106;20.014;2022-12-18T04:58:41;-1.00;99.90
38456;DHT22;24237;50.106;20.014;2022-12-18T05:01:08;-0.80;99.90
38456;DHT22;24237;50.106;20.014;2022-12-18T05:03:34;-0.90;99.90
38456;DHT22;24237;50.106;20.014;2022-12-18T05:06:00;-0.90;99.90
38456;DHT22;24237;50.106;20.014;2022-12-18T05:08:26;-0.80;99.90
38456;DHT22;24237;50.106;20.014;2022-12-18T05:11:18;-0.80;99.90
38456;DHT22;24237;50.106;20.014;2022-12-18T05:13:44;-1.00;99.90
38456;DHT22;24237;50.106;20.014;2022-12-18T05:16:11;-0.90;99.90
38456;DHT22;24237;50.106;20.014;2022-12-18T05:18:37;-0.80;99.90
38456;DHT22;24237;50.106;20.014;2022-12-18T05:21:04;-1.00;99.90
38456;DHT22;24237;50.106;20.014;2022-12-18T05:23:30;-1.00;99.90
38456;DHT22;24237;50.106;20.014;2022-12-18T05:25:57;-0.80;99.90
38456;DHT22;24237;50.106;20.014;2022-12-18T05:28:25;-1.10;99.90
38456;DHT22;24237;50.106;20.014;2022-12-18T05:30:54;-1.20;99.90
38456;DHT22;24237;50.106;20.014;2022-12-18T05:33:21;-1.20;99.90
38456;DHT22;24237;50.106;20.014;2022-12-18T05:35:54;-1.00;99.90
38456;DHT22;24237;50.106;20.014;2022-12-18T05:38:22;-1.10;99.90
38456;DHT22;24237;50.106;20.014;2022-12-18T05:40:49;-1.00;99.90
38456;DHT22;24237;50.106;20.014;2022-12-18T05:43:15;-1.00;99.90
38456;DHT22;24237;50.106;20.014;2022-12-18T05:45:41;-1.00;99.90
38456;DHT22;24237;50.106;20.014;2022-12-18T05:48:07;-1.00;99.90
38456;DHT22;24237;50.106;20.014;2022-12-18T05:50:37;-1.10;99.90
38456;DHT22;24237;50.106;20.014;2022-12-18T05:53:05;-1.00;99.90
38456;DHT22;24237;50.106;20.014;2022-12-18T05:55:35;-0.90;99.90
38456;DHT22;24237;50.106;20.014;2022-12-18T05:58:02;-0.80;99.90
38456;DHT22;24237;50.106;20.014;2022-12-18T06:00:28;-0.90;99.90
38456;DHT22;24237;50.106;20.014;2022-12-18T06:02:54;-0.90;99.90
38456;DHT22;24237;50.106;20.014;2022-12-18T06:05:19;-0.70;99.90
38456;DHT22;24237;50.106;20.014;2022-12-18T06:07:45;-0.80;99.90
38456;DHT22;24237;50.106;20.014;2022-12-18T06:10:11;-0.70;99.90
38456;DHT22;24237;50.106;20.014;2022-12-18T06:12:37;-0.90;99.90
38456;DHT22;24237;50.106;20.014;2022-12-18T06:15:03;-0.80;99.90
38456;DHT22;24237;50.106;20.014;2022-12-18T06:17:30;-0.80;99.90
38456;DHT22;24237;50.106;20.014;2022-12-18T06:19:56;-1.00;99.90
38456;DHT22;24237;50.106;20.014;2022-12-18T06:22:22;-1.00;99.90
38456;DHT22;24237;50.106;20.014;2022-12-18T06:24:48;-0.90;99.90
38456;DHT22;24237;50.106;20.014;2022-12-18T06:27:13;-0.90;99.90
38456;DHT22;24237;50.106;20.014;2022-12-18T06:29:39;-0.90;99.90
38456;DHT22;24237;50.106;20.014;2022-12-18T06:32:05;-0.90;99.90
38456;DHT22;24237;50.106;20.014;2022-12-18T06:34:32;-0.90;99.90
38456;DHT22;24237;50.106;20.014;2022-12-18T06:36:58;-0.80;99.90
38456;DHT22;24237;50.106;20.014;2022-12-18T06:39:24;-0.90;99.90
38456;DHT22;24237;50.106;20.014;2022-12-18T06:41:49;-0.80;99.90
38456;DHT22;24237;50.106;20.014;2022-12-18T06:44:15;-0.90;99.90
38456;DHT22;24237;50.106;20.014;2022-12-18T06:46:41;-0.80;99.90
38456;DHT22;24237;50.106;20.014;2022-12-18T06:49:07;-0.90;99.90
38456;DHT22;24237;50.106;20.014;2022-12-18T06:51:34;-0.70;99.90
38456;DHT22;24237;50.106;20.014;2022-12-18T06:54:03;-0.80;99.90
38456;DHT22;24237;50.106;20.014;2022-12-18T06:56:29;-0.80;99.90
38456;DHT22;24237;50.106;20.014;2022-12-18T06:58:55;-0.80;99.90
38456;DHT22;24237;50.106;20.014;2022-12-18T07:01:21;-0.90;99.90
38456;DHT22;24237;50.106;20.014;2022-12-18T07:03:47;-0.90;99.90
38456;DHT22;24237;50.106;20.014;2022-12-18T07:06:18;-1.00;99.90
38456;DHT22;24237;50.106;20.014;2022-12-18T07:08:45;-0.80;99.90
38456;DHT22;24237;50.106;20.014;2022-12-18T07:11:14;-0.70;99.90
38456;DHT22;24237;50.106;20.014;2022-12-18T07:13:40;-0.70;99.90
38456;DHT22;24237;50.106;20.014;2022-12-18T07:16:14;-0.80;99.90
38456;DHT22;24237;50.106;20.014;2022-12-18T07:18:40;-0.40;99.90
38456;DHT22;24237;50.106;20.014;2022-12-18T07:21:10;-0.40;99.90
38456;DHT22;24237;50.106;20.014;2022-12-18T07:23:36;-0.50;99.90
38456;DHT22;24237;50.106;20.014;2022-12-18T07:26:06;-0.40;99.90
38456;DHT22;24237;50.106;20.014;2022-12-18T07:28:33;-0.40;99.90
38456;DHT22;24237;50.106;20.014;2022-12-18T07:31:12;-0.40;99.90
38456;DHT22;24237;50.106;20.014;2022-12-18T07:33:41;-0.50;99.90
38456;DHT22;24237;50.106;20.014;2022-12-18T07:36:07;-0.40;99.90
38456;DHT22;24237;50.106;20.014;2022-12-18T07:38:35;-0.40;99.90
38456;DHT22;24237;50.106;20.014;2022-12-18T07:41:10;-0.50;99.90
38456;DHT22;24237;50.106;20.014;2022-12-18T07:43:36;-0.50;99.90
38456;DHT22;24237;50.106;20.014;2022-12-18T07:46:02;-0.40;99.90
38456;DHT22;24237;50.106;20.014;2022-12-18T07:48:29;-0.40;99.90
38456;DHT22;24237;50.106;20.014;2022-12-18T07:50:58;-0.20;99.90
38456;DHT22;24237;50.106;20.014;2022-12-18T07:53:24;-0.20;99.90
38456;DHT22;24237;50.106;20.014;2022-12-18T07:55:57;-0.30;99.90
38456;DHT22;24237;50.106;20.014;2022-12-18T07:58:28;-0.30;99.90
38456;DHT22;24237;50.106;20.014;2022-12-18T08:00:54;-0.10;99.90
38456;DHT22;24237;50.106;20.014;2022-12-18T08:03:27;-0.20;99.90
38456;DHT22;24237;50.106;20.014;2022-12-18T08:05:53;-0.10;99.90
38456;DHT22;24237;50.106;20.014;2022-12-18T08:08:23;0.10;99.90
38456;DHT22;24237;50.106;20.014;2022-12-18T08:10:49;0.10;99.90
38456;DHT22;24237;50.106;20.014;2022-12-18T08:13:14;-0.10;99.90
38456;DHT22;24237;50.106;20.014;2022-12-18T08:15:40;-0.10;99.90
38456;DHT22;24237;50.106;20.014;2022-12-18T08:18:06;0.00;99.90
38456;DHT22;24237;50.106;20.014;2022-12-18T08:20:31;0.20;99.90
38456;DHT22;24237;50.106;20.014;2022-12-18T08:22:57;0.30;99.90
38456;DHT22;24237;50.106;20.014;2022-12-18T08:25:26;0.20;99.90
38456;DHT22;24237;50.106;20.014;2022-12-18T08:27:52;0.30;99.90
38456;DHT22;24237;50.106;20.014;2022-12-18T08:30:18;0.40;99.90
38456;DHT22;24237;50.106;20.014;2022-12-18T08:32:43;0.40;99.90
38456;DHT22;24237;50.106;20.014;2022-12-18T08:35:09;0.40;99.90
38456;DHT22;24237;50.106;20.014;2022-12-18T08:37:37;0.50;99.90
38456;DHT22;24237;50.106;20.014;2022-12-18T08:40:03;0.80;99.90
38456;DHT22;24237;50.106;20.014;2022-12-18T08:42:28;0.60;99.90
38456;DHT22;24237;50.106;20.014;2022-12-18T08:45:13;0.50;99.90
38456;DHT22;24237;50.106;20.014;2022-12-18T08:47:38;0.60;99.90
38456;DHT22;24237;50.106;20.014;2022-12-18T08:50:04;0.60;99.90
38456;DHT22;24237;50.106;20.014;2022-12-18T08:52:32;0.40;99.90
38456;DHT22;24237;50.106;20.014;2022-12-18T08:54:57;0.60;99.90
38456;DHT22;24237;50.106;20.014;2022-12-18T08:57:26;0.60;99.90
38456;DHT22;24237;50.106;20.014;2022-12-18T08:59:52;0.50;99.90
38456;DHT22;24237;50.106;20.014;2022-12-18T09:02:17;0.60;99.90
38456;DHT22;24237;50.106;20.014;2022-12-18T09:04:43;0.70;99.90
38456;DHT22;24237;50.106;20.014;2022-12-18T09:07:08;0.80;99.90
38456;DHT22;24237;50.106;20.014;2022-12-18T09:09:34;0.70;99.90
38456;DHT22;24237;50.106;20.014;2022-12-18T09:12:00;0.50;99.90
38456;DHT22;24237;50.106;20.014;2022-12-18T09:14:26;0.60;99.90
38456;DHT22;24237;50.106;20.014;2022-12-18T09:16:52;0.60;99.90
38456;DHT22;24237;50.106;20.014;2022-12-18T09:19:17;0.60;99.90
38456;DHT22;24237;50.106;20.014;2022-12-18T09:21:43;0.80;99.90
38456;DHT22;24237;50.106;20.014;2022-12-18T09:24:12;1.00;99.90
38456;DHT22;24237;50.106;20.014;2022-12-18T09:26:38;1.10;99.90
38456;DHT22;24237;50.106;20.014;2022-12-18T09:29:04;1.20;99.90
38456;DHT22;24237;50.106;20.014;2022-12-18T09:31:30;1.00;99.90
38456;DHT22;24237;50.106;20.014;2022-12-18T09:33:56;0.90;99.90
38456;DHT22;24237;50.106;20.014;2022-12-18T09:36:22;0.80;99.90
38456;DHT22;24237;50.106;20.014;2022-12-18T09:38:47;0.80;99.90
38456;DHT22;24237;50.106;20.014;2022-12-18T09:47:05;0.80;99.90
38456;DHT22;24237;50.106;20.014;2022-12-18T09:49:35;0.70;99.90
38456;DHT22;24237;50.106;20.014;2022-12-18T09:52:14;0.70;99.90
38456;DHT22;24237;50.106;20.014;2022-12-18T09:57:46;0.60;99.90
38456;DHT22;24237;50.106;20.014;2022-12-18T10:00:23;0.80;99.90
38456;DHT22;24237;50.106;20.014;2022-12-18T10:02:52;1.00;99.90
38456;DHT22;24237;50.106;20.014;2022-12-18T10:05:35;1.00;99.90
38456;DHT22;24237;50.106;20.014;2022-12-18T10:10:53;0.80;99.90
38456;DHT22;24237;50.106;20.014;2022-12-18T10:20:02;0.90;99.90
38456;DHT22;24237;50.106;20.014;2022-12-18T10:22:43;0.40;99.90
38456;DHT22;24237;50.106;20.014;2022-12-18T10:25:24;0.50;99.90
38456;DHT22;24237;50.106;20.014;2022-12-18T10:27:56;0.40;99.90
38456;DHT22;24237;50.106;20.014;2022-12-18T10:30:24;0.40;99.90
38456;DHT22;24237;50.106;20.014;2022-12-18T10:33:18;0.40;99.90
38456;DHT22;24237;50.106;20.014;2022-12-18T10:35:45;0.50;99.90
38456;DHT22;24237;50.106;20.014;2022-12-18T10:41:06;0.60;99.90
38456;DHT22;24237;50.106;20.014;2022-12-18T10:43:42;0.90;99.90
38456;DHT22;24237;50.106;20.014;2022-12-18T10:51:02;0.80;99.90
38456;DHT22;24237;50.106;20.014;2022-12-18T10:53:30;0.80;99.90
38456;DHT22;24237;50.106;20.014;2022-12-18T10:55:57;0.90;99.90
38456;DHT22;24237;50.106;20.014;2022-12-18T10:58:32;1.40;99.90
38456;DHT22;24237;50.106;20.014;2022-12-18T11:01:18;2.20;99.90
38456;DHT22;24237;50.106;20.014;2022-12-18T11:06:25;3.70;99.90
38456;DHT22;24237;50.106;20.014;2022-12-18T11:08:59;4.50;99.90
38456;DHT22;24237;50.106;20.014;2022-12-18T11:11:26;5.00;99.90
38456;DHT22;24237;50.106;20.014;2022-12-18T11:14:32;5.00;99.90
38456;DHT22;24237;50.106;20.014;2022-12-18T11:16:59;5.50;99.90
38456;DHT22;24237;50.106;20.014;2022-12-18T11:19:41;5.20;99.90
38456;DHT22;24237;50.106;20.014;2022-12-18T11:22:30;5.30;99.70
38456;DHT22;24237;50.106;20.014;2022-12-18T11:27:24;5.50;99.30
38456;DHT22;24237;50.106;20.014;2022-12-18T11:29:50;5.60;99.10
38456;DHT22;24237;50.106;20.014;2022-12-18T11:32:27;5.60;99.00
38456;DHT22;24237;50.106;20.014;2022-12-18T11:35:17;5.90;98.40
38456;DHT22;24237;50.106;20.014;2022-12-18T11:37:54;6.10;98.30
38456;DHT22;24237;50.106;20.014;2022-12-18T11:40:35;6.30;97.20
38456;DHT22;24237;50.106;20.014;2022-12-18T11:45:29;5.70;97.40
38456;DHT22;24237;50.106;20.014;2022-12-18T11:50:59;4.90;98.10
38456;DHT22;24237;50.106;20.014;2022-12-18T11:53:27;5.50;97.30
38456;DHT22;24237;50.106;20.014;2022-12-18T11:56:26;4.70;97.80
38456;DHT22;24237;50.106;20.014;2022-12-18T12:01:50;2.90;99.90
38456;DHT22;24237;50.106;20.014;2022-12-18T12:05:34;2.40;99.90
38456;DHT22;24237;50.106;20.014;2022-12-18T12:10:45;1.00;99.90
38456;DHT22;24237;50.106;20.014;2022-12-18T12:13:21;0.80;99.90
38456;DHT22;24237;50.106;20.014;2022-12-18T12:15:58;0.30;99.90
38456;DHT22;24237;50.106;20.014;2022-12-18T12:24:07;0.60;99.90
38456;DHT22;24237;50.106;20.014;2022-12-18T12:26:56;0.60;99.90
38456;DHT22;24237;50.106;20.014;2022-12-18T12:30:04;0.40;99.90
38456;DHT22;24237;50.106;20.014;2022-12-18T12:38:34;0.50;99.90
38456;DHT22;24237;50.106;20.014;2022-12-18T12:41:06;0.50;99.90
38456;DHT22;24237;50.106;20.014;2022-12-18T12:43:57;0.40;99.90
38456;DHT22;24237;50.106;20.014;2022-12-18T12:46:24;0.60;99.90
38456;DHT22;24237;50.106;20.014;2022-12-18T12:48:56;0.50;99.90
38456;DHT22;24237;50.106;20.014;2022-12-18T12:51:27;0.60;99.90
38456;DHT22;24237;50.106;20.014;2022-12-18T12:54:20;0.60;99.90
38456;DHT22;24237;50.106;20.014;2022-12-18T12:57:31;0.60;99.90
38456;DHT22;24237;50.106;20.014;2022-12-18T13:05:45;0.40;99.90
38456;DHT22;24237;50.106;20.014;2022-12-18T13:08:22;0.60;99.90
38456;DHT22;24237;50.106;20.014;2022-12-18T13:10:48;0.70;99.90
38456;DHT22;24237;50.106;20.014;2022-12-18T13:13:15;0.70;99.90
38456;DHT22;24237;50.106;20.014;2022-12-18T13:16:06;0.60;99.90
38456;DHT22;24237;50.106;20.014;2022-12-18T13:18:34;0.60;99.90
38456;DHT22;24237;50.106;20.014;2022-12-18T13:23:51;0.50;99.90
38456;DHT22;24237;50.106;20.014;2022-12-18T13:31:12;0.90;99.90
38456;DHT22;24237;50.106;20.014;2022-12-18T13:34:18;1.20;99.90
38456;DHT22;24237;50.106;20.014;2022-12-18T13:36:45;2.40;99.90
38456;DHT22;24237;50.106;20.014;2022-12-18T13:39:22;3.00;99.90
38456;DHT22;24237;50.106;20.014;2022-12-18T13:41:54;3.50;99.90
38456;DHT22;24237;50.106;20.014;2022-12-18T13:45:00;3.50;99.90
38456;DHT22;24237;50.106;20.014;2022-12-18T13:47:33;3.70;99.90
38456;DHT22;24237;50.106;20.014;2022-12-18T13:50:04;3.50;99.90
38456;DHT22;24237;50.106;20.014;2022-12-18T13:52:37;3.30;99.90
38456;DHT22;24237;50.106;20.014;2022-12-18T13:55:07;3.20;99.90
38456;DHT22;24237;50.106;20.014;2022-12-18T13:57:40;3.40;99.90
38456;DHT22;24237;50.106;20.014;2022-12-18T14:00:30;2.70;99.90
38456;DHT22;24237;50.106;20.014;2022-12-18T14:02:57;1.80;99.90
38456;DHT22;24237;50.106;20.014;2022-12-18T14:05:36;1.40;99.90
38456;DHT22;24237;50.106;20.014;2022-12-18T14:08:05;0.70;99.90
38456;DHT22;24237;50.106;20.014;2022-12-18T14:10:32;0.70;99.90
38456;DHT22;24237;50.106;20.014;2022-12-18T14:13:07;0.40;99.90
38456;DHT22;24237;50.106;20.014;2022-12-18T14:15:44;0.00;99.90
38456;DHT22;24237;50.106;20.014;2022-12-18T14:21:26;-0.60;99.90
38456;DHT22;24237;50.106;20.014;2022-12-18T14:26:42;-1.00;99.90
38456;DHT22;24237;50.106;20.014;2022-12-18T14:29:19;-1.20;99.90
38456;DHT22;24237;50.106;20.014;2022-12-18T14:31:45;-1.50;99.90
38456;DHT22;24237;50.106;20.014;2022-12-18T14:34:17;-1.80;99.90
38456;DHT22;24237;50.106;20.014;2022-12-18T14:36:52;-1.80;99.90
38456;DHT22;24237;50.106;20.014;2022-12-18T14:39:18;-1.70;99.90
38456;DHT22;24237;50.106;20.014;2022-12-18T14:41:44;-1.40;99.90
38456;DHT22;24237;50.106;20.014;2022-12-18T14:44:13;-1.70;99.90
38456;DHT22;24237;50.106;20.014;2022-12-18T14:46:41;-1.80;99.90
38456;DHT22;24237;50.106;20.014;2022-12-18T14:51:47;-2.20;99.90
38456;DHT22;24237;50.106;20.014;2022-12-18T14:54:18;-2.50;99.90
38456;DHT22;24237;50.106;20.014;2022-12-18T14:56:47;-2.60;99.90
38456;DHT22;24237;50.106;20.014;2022-12-18T14:59:15;-2.80;99.90
38456;DHT22;24237;50.106;20.014;2022-12-18T15:01:48;-2.90;99.90
38456;DHT22;24237;50.106;20.014;2022-12-18T15:04:37;-3.00;99.90
38456;DHT22;24237;50.106;20.014;2022-12-18T15:07:18;-3.20;99.90
38456;DHT22;24237;50.106;20.014;2022-12-18T15:10:08;-3.40;99.90
38456;DHT22;24237;50.106;20.014;2022-12-18T15:12:45;-3.60;99.90
38456;DHT22;24237;50.106;20.014;2022-12-18T15:18:00;-3.80;99.90
38456;DHT22;24237;50.106;20.014;2022-12-18T15:20:40;-3.90;99.90
38456;DHT22;24237;50.106;20.014;2022-12-18T15:23:32;-4.00;99.90
38456;DHT22;24237;50.106;20.014;2022-12-18T15:26:07;-4.10;99.90
38456;DHT22;24237;50.106;20.014;2022-12-18T15:33:44;-4.30;99.90
38456;DHT22;24237;50.106;20.014;2022-12-18T15:36:13;-4.40;99.90
38456;DHT22;24237;50.106;20.014;2022-12-18T15:38:40;-4.40;99.90
38456;DHT22;24237;50.106;20.014;2022-12-18T15:41:11;-4.50;99.90
38456;DHT22;24237;50.106;20.014;2022-12-18T15:43:38;-4.50;99.90
38456;DHT22;24237;50.106;20.014;2022-12-18T15:46:06;-4.50;99.90
38456;DHT22;24237;50.106;20.014;2022-12-18T15:48:40;-4.50;99.90
38456;DHT22;24237;50.106;20.014;2022-12-18T15:51:15;-4.50;99.90
38456;DHT22;24237;50.106;20.014;2022-12-18T15:53:41;-4.50;99.90
38456;DHT22;24237;50.106;20.014;2022-12-18T15:56:11;-4.60;99.90
38456;DHT22;24237;50.106;20.014;2022-12-18T15:58:56;-4.50;99.90
38456;DHT22;24237;50.106;20.014;2022-12-18T16:01:23;-4.50;99.90
38456;DHT22;24237;50.106;20.014;2022-12-18T16:03:49;-4.50;99.90
38456;DHT22;24237;50.106;20.014;2022-12-18T16:06:15;-4.50;99.90
38456;DHT22;24237;50.106;20.014;2022-12-18T16:08:41;-4.60;99.90
38456;DHT22;24237;50.106;20.014;2022-12-18T16:11:22;-4.60;99.90
38456;DHT22;24237;50.106;20.014;2022-12-18T16:14:04;-4.70;99.90
38456;DHT22;24237;50.106;20.014;2022-12-18T16:16:30;-4.80;99.90
38456;DHT22;24237;50.106;20.014;2022-12-18T16:18:56;-4.80;99.90
38456;DHT22;24237;50.106;20.014;2022-12-18T16:21:22;-4.90;99.90
38456;DHT22;24237;50.106;20.014;2022-12-18T16:23:47;-5.00;99.90
38456;DHT22;24237;50.106;20.014;2022-12-18T16:26:13;-5.00;99.90
38456;DHT22;24237;50.106;20.014;2022-12-18T16:28:38;-5.00;99.90
38456;DHT22;24237;50.106;20.014;2022-12-18T16:31:04;-5.00;99.90
38456;DHT22;24237;50.106;20.014;2022-12-18T16:33:30;-5.00;99.90
38456;DHT22;24237;50.106;20.014;2022-12-18T16:35:56;-5.00;99.90
38456;DHT22;24237;50.106;20.014;2022-12-18T16:38:21;-5.00;99.90
38456;DHT22;24237;50.106;20.014;2022-12-18T16:40:47;-4.90;99.90
38456;DHT22;24237;50.106;20.014;2022-12-18T16:43:48;-5.00;99.90
38456;DHT22;24237;50.106;20.014;2022-12-18T16:46:13;-5.10;99.90
38456;DHT22;24237;50.106;20.014;2022-12-18T16:48:40;-5.10;99.90
38456;DHT22;24237;50.106;20.014;2022-12-18T16:51:05;-5.10;99.90
38456;DHT22;24237;50.106;20.014;2022-12-18T16:53:34;-5.10;99.90
38456;DHT22;24237;50.106;20.014;2022-12-18T16:56:00;-5.10;99.90
38456;DHT22;24237;50.106;20.014;2022-12-18T16:58:25;-5.20;99.90
38456;DHT22;24237;50.106;20.014;2022-12-18T17:00:51;-5.20;99.90
38456;DHT22;24237;50.106;20.014;2022-12-18T17:03:17;-5.20;99.90
38456;DHT22;24237;50.106;20.014;2022-12-18T17:05:42;-5.20;99.90
38456;DHT22;24237;50.106;20.014;2022-12-18T17:08:08;-5.30;99.90
38456;DHT22;24237;50.106;20.014;2022-12-18T17:10:35;-5.30;99.90
38456;DHT22;24237;50.106;20.014;2022-12-18T17:13:01;-5.40;99.90
38456;DHT22;24237;50.106;20.014;2022-12-18T17:15:26;-5.30;99.90
38456;DHT22;24237;50.106;20.014;2022-12-18T17:17:52;-5.40;99.90
38456;DHT22;24237;50.106;20.014;2022-12-18T17:20:18;-5.50;99.90
38456;DHT22;24237;50.106;20.014;2022-12-18T17:22:43;-5.50;99.90
38456;DHT22;24237;50.106;20.014;2022-12-18T17:25:09;-5.50;99.90
38456;DHT22;24237;50.106;20.014;2022-12-18T17:27:35;-5.50;99.90
38456;DHT22;24237;50.106;20.014;2022-12-18T17:30:01;-5.60;99.90